CheckWX is a tool to help pilots better visualize weather data.  It is not intended as a substitute for an official pre-flight weather briefing.

04:28:50 UTC

EGHH METAR
Bournemouth Airport
Bournemouth, United Kingdom
Current

7 hours ago

EGHH 242150Z 13012KT 9999 FEW048 10/08 Q0995
Observed
Apr-24 @ 21:50 UTC
Wind
  • 130° at 12 KTS
Visibility
10,000+ meters
Flight Rules
VFR
Cloud Levels
  • Few at 4,800' AGL
Temperature
10°C / 50°F
Dewpoint
C / 46°F
Humidity
88%
Altimeter
29.38" Hg
Pressure
994.92 hPa
Previous

7 hours ago

EGHH 242120Z 13012KT 090V170 9999 FEW048 11/08 Q0995
Observed
Apr-24 @ 21:20 UTC
Wind
  • 130° at 12 KTS
Visibility
10,000+ meters
Flight Rules
VFR
Cloud Levels
  • Few at 4,800' AGL
Temperature
11°C / 52°F
Dewpoint
C / 46°F
Humidity
82%
Altimeter
29.38" Hg
Pressure
994.92 hPa
Previous

8 hours ago

EGHH 242050Z 13011KT 100V160 9999 FEW048 11/07 Q0995
Observed
Apr-24 @ 20:50 UTC
Wind
  • 130° at 11 KTS
Visibility
10,000+ meters
Flight Rules
VFR
Cloud Levels
  • Few at 4,800' AGL
Temperature
11°C / 52°F
Dewpoint
C / 45°F
Humidity
77%
Altimeter
29.38" Hg
Pressure
994.92 hPa